sensor_id;sensor_type;location;lat;lon;timestamp;P1;durP1;ratioP1;P2;durP2;ratioP2
63965;SDS011;50151;52.030;5.350;2023-06-10T08:32:01;8.73;;;4.10;;
63965;SDS011;50151;52.030;5.350;2023-06-10T08:34:28;7.90;;;4.30;;
63965;SDS011;50151;52.030;5.350;2023-06-10T08:36:55;6.95;;;4.13;;
63965;SDS011;50151;52.030;5.350;2023-06-10T08:39:22;13.52;;;4.68;;
63965;SDS011;50151;52.030;5.350;2023-06-10T08:41:51;7.32;;;4.03;;
63965;SDS011;50151;52.030;5.350;2023-06-10T08:44:41;9.60;;;4.80;;
63965;SDS011;50151;52.030;5.350;2023-06-10T08:47:15;9.02;;;4.50;;
63965;SDS011;50151;52.030;5.350;2023-06-10T08:49:46;14.02;;;4.13;;
63965;SDS011;50151;52.030;5.350;2023-06-10T08:52:17;9.32;;;4.35;;
63965;SDS011;50151;52.030;5.350;2023-06-10T08:54:54;10.77;;;4.18;;
63965;SDS011;50151;52.030;5.350;2023-06-10T08:57:25;8.73;;;3.92;;
63965;SDS011;50151;52.030;5.350;2023-06-10T08:59:53;8.63;;;3.80;;
63965;SDS011;50151;52.030;5.350;2023-06-10T09:02:22;9.25;;;4.53;;
63965;SDS011;50151;52.030;5.350;2023-06-10T09:04:50;11.63;;;4.35;;
63965;SDS011;50151;52.030;5.350;2023-06-10T09:07:19;8.18;;;3.85;;
63965;SDS011;50151;52.030;5.350;2023-06-10T09:09:48;8.07;;;4.30;;
63965;SDS011;50151;52.030;5.350;2023-06-10T09:12:15;7.95;;;4.20;;
63965;SDS011;50151;52.030;5.350;2023-06-10T09:14:42;9.15;;;4.00;;
63965;SDS011;50151;52.030;5.350;2023-06-10T09:17:09;6.63;;;3.92;;
63965;SDS011;50151;52.030;5.350;2023-06-10T09:19:36;8.82;;;3.70;;
63965;SDS011;50151;52.030;5.350;2023-06-10T09:22:05;8.93;;;4.05;;
63965;SDS011;50151;52.030;5.350;2023-06-10T09:24:31;6.68;;;4.00;;
63965;SDS011;50151;52.030;5.350;2023-06-10T09:27:05;9.07;;;4.15;;
63965;SDS011;50151;52.030;5.350;2023-06-10T09:29:52;12.27;;;4.10;;
63965;SDS011;50151;52.030;5.350;2023-06-10T09:32:20;6.95;;;4.03;;
63965;SDS011;50151;52.030;5.350;2023-06-10T09:34:47;5.57;;;3.58;;
63965;SDS011;50151;52.030;5.350;2023-06-10T09:37:21;10.75;;;4.45;;
63965;SDS011;50151;52.030;5.350;2023-06-10T09:40:07;7.05;;;4.15;;
63965;SDS011;50151;52.030;5.350;2023-06-10T09:42:38;8.40;;;3.80;;
63965;SDS011;50151;52.030;5.350;2023-06-10T09:45:14;8.77;;;3.92;;
63965;SDS011;50151;52.030;5.350;2023-06-10T09:47:42;11.27;;;3.80;;
63965;SDS011;50151;52.030;5.350;2023-06-10T09:50:14;9.10;;;3.50;;
63965;SDS011;50151;52.030;5.350;2023-06-10T09:52:42;7.53;;;3.88;;
63965;SDS011;50151;52.030;5.350;2023-06-10T09:55:11;7.82;;;3.72;;
63965;SDS011;50151;52.030;5.350;2023-06-10T09:57:38;7.78;;;3.95;;
63965;SDS011;50151;52.030;5.350;2023-06-10T10:00:07;5.53;;;3.58;;
63965;SDS011;50151;52.030;5.350;2023-06-10T10:02:49;6.45;;;3.45;;
63965;SDS011;50151;52.030;5.350;2023-06-10T10:05:17;5.60;;;3.40;;
63965;SDS011;50151;52.030;5.350;2023-06-10T10:07:51;6.13;;;3.63;;
63965;SDS011;50151;52.030;5.350;2023-06-10T10:10:23;4.55;;;3.58;;
63965;SDS011;50151;52.030;5.350;2023-06-10T10:12:56;10.52;;;3.67;;
63965;SDS011;50151;52.030;5.350;2023-06-10T10:15:25;9.15;;;3.30;;
63965;SDS011;50151;52.030;5.350;2023-06-10T10:17:58;6.78;;;3.53;;
63965;SDS011;50151;52.030;5.350;2023-06-10T10:20:29;7.32;;;3.70;;
63965;SDS011;50151;52.030;5.350;2023-06-10T10:22:57;5.38;;;3.50;;
63965;SDS011;50151;52.030;5.350;2023-06-10T10:25:28;6.70;;;4.03;;
63965;SDS011;50151;52.030;5.350;2023-06-10T10:28:19;6.85;;;3.67;;
63965;SDS011;50151;52.030;5.350;2023-06-10T10:30:51;7.93;;;3.70;;
63965;SDS011;50151;52.030;5.350;2023-06-10T10:33:22;9.07;;;3.70;;
63965;SDS011;50151;52.030;5.350;2023-06-10T10:35:59;5.13;;;3.70;;
63965;SDS011;50151;52.030;5.350;2023-06-10T10:38:27;7.30;;;3.53;;
63965;SDS011;50151;52.030;5.350;2023-06-10T10:40:58;6.43;;;3.53;;
63965;SDS011;50151;52.030;5.350;2023-06-10T10:43:27;8.00;;;3.70;;
63965;SDS011;50151;52.030;5.350;2023-06-10T10:45:59;11.23;;;3.47;;
63965;SDS011;50151;52.030;5.350;2023-06-10T10:48:35;6.88;;;3.47;;
63965;SDS011;50151;52.030;5.350;2023-06-10T10:51:04;7.88;;;3.80;;
63965;SDS011;50151;52.030;5.350;2023-06-10T10:53:34;6.15;;;3.85;;
63965;SDS011;50151;52.030;5.350;2023-06-10T10:56:06;6.55;;;3.38;;
63965;SDS011;50151;52.030;5.350;2023-06-10T10:58:41;7.03;;;3.63;;
63965;SDS011;50151;52.030;5.350;2023-06-10T11:01:43;5.82;;;3.50;;
63965;SDS011;50151;52.030;5.350;2023-06-10T11:04:17;5.20;;;3.90;;
63965;SDS011;50151;52.030;5.350;2023-06-10T11:06:52;10.25;;;3.70;;
63965;SDS011;50151;52.030;5.350;2023-06-10T11:09:29;8.95;;;3.45;;
63965;SDS011;50151;52.030;5.350;2023-06-10T11:11:57;8.27;;;3.30;;
63965;SDS011;50151;52.030;5.350;2023-06-10T11:14:34;5.50;;;3.20;;
63965;SDS011;50151;52.030;5.350;2023-06-10T11:17:05;6.22;;;3.33;;
63965;SDS011;50151;52.030;5.350;2023-06-10T11:19:47;7.43;;;3.47;;
63965;SDS011;50151;52.030;5.350;2023-06-10T11:22:19;8.25;;;3.40;;
63965;SDS011;50151;52.030;5.350;2023-06-10T11:24:55;8.15;;;3.60;;
63965;SDS011;50151;52.030;5.350;2023-06-10T11:27:25;7.25;;;3.47;;
63965;SDS011;50151;52.030;5.350;2023-06-10T11:32:30;8.73;;;3.57;;
63965;SDS011;50151;52.030;5.350;2023-06-10T11:35:04;11.30;;;3.53;;
63965;SDS011;50151;52.030;5.350;2023-06-10T11:37:35;7.25;;;3.40;;
63965;SDS011;50151;52.030;5.350;2023-06-10T11:40:02;9.73;;;3.70;;
63965;SDS011;50151;52.030;5.350;2023-06-10T11:42:38;7.47;;;3.70;;
63965;SDS011;50151;52.030;5.350;2023-06-10T11:45:07;7.75;;;3.15;;
63965;SDS011;50151;52.030;5.350;2023-06-10T11:47:35;8.82;;;3.65;;
63965;SDS011;50151;52.030;5.350;2023-06-10T11:50:02;5.57;;;3.50;;
63965;SDS011;50151;52.030;5.350;2023-06-10T11:52:30;8.10;;;3.30;;
63965;SDS011;50151;52.030;5.350;2023-06-10T11:54:59;5.68;;;3.50;;
63965;SDS011;50151;52.030;5.350;2023-06-10T11:57:26;6.30;;;3.65;;
63965;SDS011;50151;52.030;5.350;2023-06-10T11:59:53;6.68;;;3.50;;
63965;SDS011;50151;52.030;5.350;2023-06-10T12:02:20;7.07;;;3.72;;
63965;SDS011;50151;52.030;5.350;2023-06-10T12:04:48;7.68;;;3.58;;
63965;SDS011;50151;52.030;5.350;2023-06-10T12:07:18;6.10;;;3.38;;
63965;SDS011;50151;52.030;5.350;2023-06-10T12:09:46;6.22;;;3.50;;
63965;SDS011;50151;52.030;5.350;2023-06-10T12:12:13;5.50;;;3.38;;
63965;SDS011;50151;52.030;5.350;2023-06-10T12:14:49;7.88;;;3.42;;
63965;SDS011;50151;52.030;5.350;2023-06-10T12:20:01;7.78;;;3.42;;
63965;SDS011;50151;52.030;5.350;2023-06-10T12:22:40;5.75;;;3.60;;
63965;SDS011;50151;52.030;5.350;2023-06-10T12:25:12;8.50;;;3.60;;
63965;SDS011;50151;52.030;5.350;2023-06-10T12:27:49;5.85;;;3.33;;
63965;SDS011;50151;52.030;5.350;2023-06-10T12:30:19;5.00;;;3.30;;
63965;SDS011;50151;52.030;5.350;2023-06-10T12:32:47;10.40;;;3.30;;
63965;SDS011;50151;52.030;5.350;2023-06-10T12:35:18;5.43;;;3.22;;
63965;SDS011;50151;52.030;5.350;2023-06-10T12:37:59;6.97;;;3.60;;
63965;SDS011;50151;52.030;5.350;2023-06-10T12:40:28;5.70;;;3.13;;
63965;SDS011;50151;52.030;5.350;2023-06-10T12:43:00;6.45;;;3.47;;
63965;SDS011;50151;52.030;5.350;2023-06-10T12:45:34;3.92;;;2.90;;
63965;SDS011;50151;52.030;5.350;2023-06-10T12:48:10;7.43;;;3.60;;
63965;SDS011;50151;52.030;5.350;2023-06-10T12:50:50;5.05;;;3.17;;
63965;SDS011;50151;52.030;5.350;2023-06-10T12:53:22;5.10;;;3.03;;
63965;SDS011;50151;52.030;5.350;2023-06-10T12:55:50;9.60;;;3.20;;
63965;SDS011;50151;52.030;5.350;2023-06-10T12:58:19;5.35;;;3.13;;
63965;SDS011;50151;52.030;5.350;2023-06-10T13:00:53;7.40;;;3.30;;
63965;SDS011;50151;52.030;5.350;2023-06-10T13:03:20;3.90;;;2.88;;
63965;SDS011;50151;52.030;5.350;2023-06-10T13:05:48;8.70;;;3.22;;
63965;SDS011;50151;52.030;5.350;2023-06-10T13:08:18;5.78;;;3.35;;
63965;SDS011;50151;52.030;5.350;2023-06-10T13:10:51;8.23;;;3.20;;
63965;SDS011;50151;52.030;5.350;2023-06-10T13:13:18;8.25;;;3.08;;
63965;SDS011;50151;52.030;5.350;2023-06-10T13:15:45;10.48;;;3.30;;
63965;SDS011;50151;52.030;5.350;2023-06-10T13:18:12;7.40;;;3.13;;
63965;SDS011;50151;52.030;5.350;2023-06-10T13:20:51;4.80;;;3.07;;
63965;SDS011;50151;52.030;5.350;2023-06-10T13:23:36;4.82;;;2.90;;
63965;SDS011;50151;52.030;5.350;2023-06-10T13:26:41;4.95;;;3.28;;
63965;SDS011;50151;52.030;5.350;2023-06-10T13:29:09;6.30;;;3.08;;
63965;SDS011;50151;52.030;5.350;2023-06-10T13:31:42;7.13;;;3.28;;
63965;SDS011;50151;52.030;5.350;2023-06-10T13:34:09;10.57;;;3.47;;
63965;SDS011;50151;52.030;5.350;2023-06-10T13:36:37;8.63;;;3.63;;
63965;SDS011;50151;52.030;5.350;2023-06-10T13:39:06;7.05;;;3.20;;
63965;SDS011;50151;52.030;5.350;2023-06-10T13:41:34;8.88;;;3.10;;
63965;SDS011;50151;52.030;5.350;2023-06-10T13:44:01;5.90;;;3.63;;
63965;SDS011;50151;52.030;5.350;2023-06-10T13:46:35;7.30;;;3.15;;
63965;SDS011;50151;52.030;5.350;2023-06-10T13:49:04;5.38;;;3.20;;
63965;SDS011;50151;52.030;5.350;2023-06-10T13:51:31;6.63;;;3.33;;
63965;SDS011;50151;52.030;5.350;2023-06-10T13:53:58;7.65;;;3.60;;
63965;SDS011;50151;52.030;5.350;2023-06-10T13:56:25;5.40;;;3.58;;
63965;SDS011;50151;52.030;5.350;2023-06-10T13:58:59;10.45;;;4.00;;
63965;SDS011;50151;52.030;5.350;2023-06-10T14:01:34;6.82;;;3.42;;
63965;SDS011;50151;52.030;5.350;2023-06-10T14:04:26;10.40;;;3.20;;
63965;SDS011;50151;52.030;5.350;2023-06-10T14:06:56;6.15;;;3.35;;
63965;SDS011;50151;52.030;5.350;2023-06-10T14:09:29;6.30;;;3.20;;
63965;SDS011;50151;52.030;5.350;2023-06-10T14:12:01;6.53;;;3.25;;
63965;SDS011;50151;52.030;5.350;2023-06-10T14:14:31;8.32;;;3.13;;
63965;SDS011;50151;52.030;5.350;2023-06-10T14:17:14;4.53;;;2.93;;
63965;SDS011;50151;52.030;5.350;2023-06-10T14:19:49;5.38;;;3.42;;
63965;SDS011;50151;52.030;5.350;2023-06-10T14:22:17;8.05;;;3.30;;
63965;SDS011;50151;52.030;5.350;2023-06-10T14:25:05;5.18;;;3.10;;
63965;SDS011;50151;52.030;5.350;2023-06-10T14:27:52;6.30;;;3.45;;
63965;SDS011;50151;52.030;5.350;2023-06-10T14:30:37;5.53;;;3.22;;
63965;SDS011;50151;52.030;5.350;2023-06-10T14:33:17;7.82;;;3.10;;
63965;SDS011;50151;52.030;5.350;2023-06-10T14:36:23;6.55;;;3.10;;
63965;SDS011;50151;52.030;5.350;2023-06-10T14:38:55;4.07;;;3.15;;
63965;SDS011;50151;52.030;5.350;2023-06-10T14:41:28;4.75;;;3.00;;
63965;SDS011;50151;52.030;5.350;2023-06-10T14:43:55;4.43;;;3.00;;
63965;SDS011;50151;52.030;5.350;2023-06-10T14:46:23;4.95;;;3.00;;
63965;SDS011;50151;52.030;5.350;2023-06-10T14:48:54;9.35;;;3.30;;
63965;SDS011;50151;52.030;5.350;2023-06-10T14:51:21;6.60;;;3.30;;
63965;SDS011;50151;52.030;5.350;2023-06-10T14:53:48;7.90;;;3.10;;
63965;SDS011;50151;52.030;5.350;2023-06-10T14:56:18;7.13;;;3.40;;
63965;SDS011;50151;52.030;5.350;2023-06-10T14:58:44;7.47;;;3.22;;
63965;SDS011;50151;52.030;5.350;2023-06-10T15:01:11;4.43;;;3.10;;
63965;SDS011;50151;52.030;5.350;2023-06-10T15:03:38;8.80;;;2.83;;
63965;SDS011;50151;52.030;5.350;2023-06-10T15:06:06;5.55;;;3.08;;
63965;SDS011;50151;52.030;5.350;2023-06-10T15:08:32;7.85;;;2.85;;
63965;SDS011;50151;52.030;5.350;2023-06-10T15:11:00;4.55;;;3.05;;
63965;SDS011;50151;52.030;5.350;2023-06-10T15:13:28;6.05;;;3.10;;
63965;SDS011;50151;52.030;5.350;2023-06-10T15:15:55;4.40;;;2.90;;
63965;SDS011;50151;52.030;5.350;2023-06-10T15:18:22;10.60;;;3.05;;
63965;SDS011;50151;52.030;5.350;2023-06-10T15:20:50;8.18;;;3.30;;
63965;SDS011;50151;52.030;5.350;2023-06-10T15:23:17;6.07;;;3.17;;
63965;SDS011;50151;52.030;5.350;2023-06-10T15:25:47;3.13;;;2.60;;
63965;SDS011;50151;52.030;5.350;2023-06-10T15:28:14;8.77;;;3.20;;
63965;SDS011;50151;52.030;5.350;2023-06-10T15:30:41;11.05;;;3.28;;
63965;SDS011;50151;52.030;5.350;2023-06-10T15:33:08;8.88;;;3.22;;
63965;SDS011;50151;52.030;5.350;2023-06-10T15:35:35;10.40;;;3.00;;
63965;SDS011;50151;52.030;5.350;2023-06-10T15:38:02;8.45;;;3.03;;
63965;SDS011;50151;52.030;5.350;2023-06-10T15:40:29;4.03;;;2.95;;
63965;SDS011;50151;52.030;5.350;2023-06-10T15:42:56;5.32;;;3.00;;
63965;SDS011;50151;52.030;5.350;2023-06-10T15:45:23;7.93;;;3.08;;
63965;SDS011;50151;52.030;5.350;2023-06-10T15:48:19;5.35;;;3.08;;
63965;SDS011;50151;52.030;5.350;2023-06-10T15:51:01;7.93;;;2.80;;
63965;SDS011;50151;52.030;5.350;2023-06-10T15:53:33;8.07;;;2.95;;
63965;SDS011;50151;52.030;5.350;2023-06-10T15:56:02;5.47;;;3.10;;
63965;SDS011;50151;52.030;5.350;2023-06-10T15:58:29;9.20;;;3.40;;
63965;SDS011;50151;52.030;5.350;2023-06-10T16:00:57;10.45;;;3.17;;
63965;SDS011;50151;52.030;5.350;2023-06-10T16:03:24;5.45;;;2.97;;
63965;SDS011;50151;52.030;5.350;2023-06-10T16:05:51;7.35;;;3.58;;
63965;SDS011;50151;52.030;5.350;2023-06-10T16:08:18;13.95;;;3.47;;
63965;SDS011;50151;52.030;5.350;2023-06-10T16:10:45;9.73;;;2.83;;
63965;SDS011;50151;52.030;5.350;2023-06-10T16:13:15;6.43;;;3.22;;
63965;SDS011;50151;52.030;5.350;2023-06-10T16:15:42;6.93;;;2.97;;
63965;SDS011;50151;52.030;5.350;2023-06-10T16:18:09;5.35;;;3.42;;
63965;SDS011;50151;52.030;5.350;2023-06-10T16:20:36;5.00;;;2.90;;
63965;SDS011;50151;52.030;5.350;2023-06-10T16:23:03;5.40;;;3.10;;
63965;SDS011;50151;52.030;5.350;2023-06-10T16:25:31;5.53;;;2.67;;
63965;SDS011;50151;52.030;5.350;2023-06-10T16:28:00;5.80;;;2.95;;
63965;SDS011;50151;52.030;5.350;2023-06-10T16:30:28;4.35;;;3.10;;
63965;SDS011;50151;52.030;5.350;2023-06-10T16:32:56;7.03;;;2.72;;
63965;SDS011;50151;52.030;5.350;2023-06-10T16:35:24;9.20;;;2.88;;
63965;SDS011;50151;52.030;5.350;2023-06-10T16:37:52;3.92;;;2.85;;
63965;SDS011;50151;52.030;5.350;2023-06-10T16:40:19;5.85;;;3.10;;
63965;SDS011;50151;52.030;5.350;2023-06-10T16:42:46;5.53;;;3.20;;
63965;SDS011;50151;52.030;5.350;2023-06-10T16:45:13;5.70;;;2.90;;
63965;SDS011;50151;52.030;5.350;2023-06-10T16:47:40;3.58;;;2.90;;
63965;SDS011;50151;52.030;5.350;2023-06-10T16:50:07;6.85;;;3.13;;
63965;SDS011;50151;52.030;5.350;2023-06-10T16:52:34;6.78;;;3.05;;
63965;SDS011;50151;52.030;5.350;2023-06-10T16:55:01;5.53;;;3.00;;
63965;SDS011;50151;52.030;5.350;2023-06-10T16:57:31;5.97;;;3.60;;
63965;SDS011;50151;52.030;5.350;2023-06-10T16:59:59;6.65;;;3.00;;
63965;SDS011;50151;52.030;5.350;2023-06-10T17:02:26;6.10;;;3.53;;
63965;SDS011;50151;52.030;5.350;2023-06-10T17:04:53;6.70;;;3.20;;
63965;SDS011;50151;52.030;5.350;2023-06-10T17:07:22;4.53;;;3.03;;
63965;SDS011;50151;52.030;5.350;2023-06-10T17:09:49;7.88;;;3.10;;
63965;SDS011;50151;52.030;5.350;2023-06-10T17:12:16;5.43;;;2.80;;
63965;SDS011;50151;52.030;5.350;2023-06-10T17:14:43;4.93;;;2.90;;
63965;SDS011;50151;52.030;5.350;2023-06-10T17:17:11;6.35;;;3.10;;
63965;SDS011;50151;52.030;5.350;2023-06-10T17:19:38;5.90;;;3.20;;
63965;SDS011;50151;52.030;5.350;2023-06-10T17:22:05;8.40;;;3.25;;
63965;SDS011;50151;52.030;5.350;2023-06-10T17:24:32;7.72;;;3.00;;
63965;SDS011;50151;52.030;5.350;2023-06-10T17:26:59;5.15;;;3.03;;
63965;SDS011;50151;52.030;5.350;2023-06-10T17:29:26;5.90;;;3.22;;
63965;SDS011;50151;52.030;5.350;2023-06-10T17:31:53;6.10;;;3.10;;
63965;SDS011;50151;52.030;5.350;2023-06-10T17:34:20;6.90;;;3.20;;
63965;SDS011;50151;52.030;5.350;2023-06-10T17:36:47;8.35;;;3.10;;
63965;SDS011;50151;52.030;5.350;2023-06-10T17:39:14;6.28;;;3.13;;
63965;SDS011;50151;52.030;5.350;2023-06-10T17:41:41;5.68;;;3.05;;
63965;SDS011;50151;52.030;5.350;2023-06-10T17:44:08;9.20;;;3.42;;
63965;SDS011;50151;52.030;5.350;2023-06-10T17:46:35;4.03;;;3.13;;
63965;SDS011;50151;52.030;5.350;2023-06-10T17:49:02;6.70;;;3.83;;
63965;SDS011;50151;52.030;5.350;2023-06-10T17:51:29;7.35;;;3.35;;
63965;SDS011;50151;52.030;5.350;2023-06-10T17:53:56;7.07;;;2.95;;
63965;SDS011;50151;52.030;5.350;2023-06-10T17:56:23;7.55;;;3.30;;
63965;SDS011;50151;52.030;5.350;2023-06-10T17:58:51;6.38;;;2.72;;
63965;SDS011;50151;52.030;5.350;2023-06-10T18:01:18;4.45;;;3.10;;
63965;SDS011;50151;52.030;5.350;2023-06-10T18:03:44;5.72;;;3.03;;
63965;SDS011;50151;52.030;5.350;2023-06-10T18:06:11;5.60;;;3.20;;
63965;SDS011;50151;52.030;5.350;2023-06-10T18:08:38;4.78;;;3.28;;
63965;SDS011;50151;52.030;5.350;2023-06-10T18:11:05;5.85;;;3.13;;
63965;SDS011;50151;52.030;5.350;2023-06-10T18:13:32;9.45;;;3.00;;
63965;SDS011;50151;52.030;5.350;2023-06-10T18:15:59;8.60;;;3.30;;
63965;SDS011;50151;52.030;5.350;2023-06-10T18:18:28;5.40;;;3.13;;
63965;SDS011;50151;52.030;5.350;2023-06-10T18:20:55;6.50;;;3.10;;
63965;SDS011;50151;52.030;5.350;2023-06-10T18:23:25;8.07;;;2.95;;
63965;SDS011;50151;52.030;5.350;2023-06-10T18:25:52;8.38;;;2.97;;
63965;SDS011;50151;52.030;5.350;2023-06-10T18:28:18;8.40;;;2.97;;
63965;SDS011;50151;52.030;5.350;2023-06-10T18:30:45;10.27;;;3.30;;
63965;SDS011;50151;52.030;5.350;2023-06-10T18:33:12;6.15;;;2.90;;
63965;SDS011;50151;52.030;5.350;2023-06-10T18:35:39;5.95;;;3.10;;
63965;SDS011;50151;52.030;5.350;2023-06-10T18:38:06;6.10;;;3.03;;
63965;SDS011;50151;52.030;5.350;2023-06-10T18:40:33;9.52;;;3.35;;
63965;SDS011;50151;52.030;5.350;2023-06-10T18:43:00;7.22;;;3.40;;
63965;SDS011;50151;52.030;5.350;2023-06-10T18:45:26;6.30;;;3.17;;
63965;SDS011;50151;52.030;5.350;2023-06-10T18:47:53;7.95;;;3.35;;
63965;SDS011;50151;52.030;5.350;2023-06-10T18:50:24;7.78;;;3.10;;
63965;SDS011;50151;52.030;5.350;2023-06-10T18:52:51;6.35;;;3.40;;
63965;SDS011;50151;52.030;5.350;2023-06-10T18:55:18;5.60;;;3.42;;
63965;SDS011;50151;52.030;5.350;2023-06-10T18:57:44;12.82;;;3.40;;
63965;SDS011;50151;52.030;5.350;2023-06-10T19:00:11;5.53;;;3.33;;
63965;SDS011;50151;52.030;5.350;2023-06-10T19:02:39;9.45;;;3.40;;
63965;SDS011;50151;52.030;5.350;2023-06-10T19:05:07;7.28;;;3.38;;
63965;SDS011;50151;52.030;5.350;2023-06-10T19:07:36;5.60;;;3.08;;
63965;SDS011;50151;52.030;5.350;2023-06-10T19:10:02;8.88;;;4.03;;
63965;SDS011;50151;52.030;5.350;2023-06-10T19:12:29;13.25;;;3.40;;
63965;SDS011;50151;52.030;5.350;2023-06-10T19:14:56;10.55;;;3.28;;
63965;SDS011;50151;52.030;5.350;2023-06-10T19:17:23;6.10;;;3.33;;
63965;SDS011;50151;52.030;5.350;2023-06-10T19:19:50;9.00;;;3.38;;
63965;SDS011;50151;52.030;5.350;2023-06-10T19:22:17;9.15;;;3.50;;
63965;SDS011;50151;52.030;5.350;2023-06-10T19:24:46;9.50;;;3.10;;
63965;SDS011;50151;52.030;5.350;2023-06-10T19:27:24;6.88;;;3.25;;
63965;SDS011;50151;52.030;5.350;2023-06-10T19:29:50;7.78;;;3.13;;
63965;SDS011;50151;52.030;5.350;2023-06-10T19:32:17;13.13;;;3.70;;
63965;SDS011;50151;52.030;5.350;2023-06-10T19:34:44;6.55;;;3.45;;
63965;SDS011;50151;52.030;5.350;2023-06-10T19:37:10;9.00;;;3.40;;
63965;SDS011;50151;52.030;5.350;2023-06-10T19:39:37;9.50;;;3.67;;
63965;SDS011;50151;52.030;5.350;2023-06-10T19:42:04;5.60;;;3.30;;
63965;SDS011;50151;52.030;5.350;2023-06-10T19:44:35;5.88;;;3.10;;
63965;SDS011;50151;52.030;5.350;2023-06-10T19:47:02;7.68;;;3.70;;
63965;SDS011;50151;52.030;5.350;2023-06-10T19:49:29;5.28;;;3.58;;
63965;SDS011;50151;52.030;5.350;2023-06-10T19:51:56;8.52;;;3.50;;
63965;SDS011;50151;52.030;5.350;2023-06-10T19:54:23;4.72;;;3.22;;
63965;SDS011;50151;52.030;5.350;2023-06-10T19:56:49;6.60;;;3.60;;
63965;SDS011;50151;52.030;5.350;2023-06-10T19:59:16;6.55;;;3.10;;
63965;SDS011;50151;52.030;5.350;2023-06-10T20:01:43;8.80;;;3.42;;
63965;SDS011;50151;52.030;5.350;2023-06-10T20:04:10;6.57;;;3.58;;
63965;SDS011;50151;52.030;5.350;2023-06-10T20:06:38;7.03;;;3.92;;
63965;SDS011;50151;52.030;5.350;2023-06-10T20:09:05;5.93;;;3.80;;
63965;SDS011;50151;52.030;5.350;2023-06-10T20:11:32;8.20;;;3.45;;
63965;SDS011;50151;52.030;5.350;2023-06-10T20:13:58;9.98;;;3.92;;
63965;SDS011;50151;52.030;5.350;2023-06-10T20:16:25;7.53;;;3.58;;
63965;SDS011;50151;52.030;5.350;2023-06-10T20:18:52;10.23;;;3.65;;
63965;SDS011;50151;52.030;5.350;2023-06-10T20:21:19;8.05;;;3.88;;
63965;SDS011;50151;52.030;5.350;2023-06-10T20:23:46;9.70;;;3.97;;
63965;SDS011;50151;52.030;5.350;2023-06-10T20:26:13;14.60;;;4.20;;
63965;SDS011;50151;52.030;5.350;2023-06-10T20:28:40;5.15;;;3.47;;
63965;SDS011;50151;52.030;5.350;2023-06-10T20:31:06;11.82;;;3.90;;
63965;SDS011;50151;52.030;5.350;2023-06-10T20:33:33;6.25;;;3.53;;
63965;SDS011;50151;52.030;5.350;2023-06-10T20:36:00;12.25;;;3.78;;
63965;SDS011;50151;52.030;5.350;2023-06-10T20:38:26;10.05;;;3.60;;
63965;SDS011;50151;52.030;5.350;2023-06-10T20:40:53;8.05;;;3.53;;
63965;SDS011;50151;52.030;5.350;2023-06-10T20:43:20;9.43;;;3.63;;
63965;SDS011;50151;52.030;5.350;2023-06-10T20:45:47;8.82;;;3.30;;
63965;SDS011;50151;52.030;5.350;2023-06-10T20:48:14;8.50;;;3.35;;
63965;SDS011;50151;52.030;5.350;2023-06-10T20:50:42;9.75;;;4.05;;
63965;SDS011;50151;52.030;5.350;2023-06-10T20:53:09;13.82;;;3.75;;
63965;SDS011;50151;52.030;5.350;2023-06-10T20:55:35;7.80;;;3.70;;
63965;SDS011;50151;52.030;5.350;2023-06-10T20:58:02;9.02;;;3.58;;
63965;SDS011;50151;52.030;5.350;2023-06-10T21:00:29;8.10;;;3.95;;
63965;SDS011;50151;52.030;5.350;2023-06-10T21:02:56;13.63;;;3.55;;
63965;SDS011;50151;52.030;5.350;2023-06-10T21:05:23;7.90;;;3.75;;
63965;SDS011;50151;52.030;5.350;2023-06-10T21:07:50;9.57;;;3.85;;
63965;SDS011;50151;52.030;5.350;2023-06-10T21:10:16;10.13;;;3.90;;
63965;SDS011;50151;52.030;5.350;2023-06-10T21:12:43;10.70;;;3.60;;
63965;SDS011;50151;52.030;5.350;2023-06-10T21:15:10;8.88;;;3.33;;
63965;SDS011;50151;52.030;5.350;2023-06-10T21:17:37;11.27;;;3.92;;
63965;SDS011;50151;52.030;5.350;2023-06-10T21:20:04;9.30;;;3.75;;
63965;SDS011;50151;52.030;5.350;2023-06-10T21:22:31;6.57;;;3.60;;
63965;SDS011;50151;52.030;5.350;2023-06-10T21:24:57;7.95;;;3.55;;
63965;SDS011;50151;52.030;5.350;2023-06-10T21:27:24;7.97;;;3.92;;
63965;SDS011;50151;52.030;5.350;2023-06-10T21:29:51;8.93;;;4.40;;
63965;SDS011;50151;52.030;5.350;2023-06-10T21:32:18;13.07;;;3.97;;
63965;SDS011;50151;52.030;5.350;2023-06-10T21:34:45;8.32;;;4.13;;
63965;SDS011;50151;52.030;5.350;2023-06-10T21:37:11;9.95;;;4.10;;
63965;SDS011;50151;52.030;5.350;2023-06-10T21:39:38;8.10;;;4.10;;
63965;SDS011;50151;52.030;5.350;2023-06-10T21:42:05;9.73;;;4.25;;
63965;SDS011;50151;52.030;5.350;2023-06-10T21:44:32;10.15;;;4.50;;
63965;SDS011;50151;52.030;5.350;2023-06-10T21:46:59;8.50;;;4.22;;
63965;SDS011;50151;52.030;5.350;2023-06-10T21:49:26;9.27;;;4.70;;
63965;SDS011;50151;52.030;5.350;2023-06-10T21:51:52;8.63;;;4.43;;
63965;SDS011;50151;52.030;5.350;2023-06-10T21:54:19;9.40;;;4.28;;
63965;SDS011;50151;52.030;5.350;2023-06-10T21:56:46;7.90;;;4.53;;
63965;SDS011;50151;52.030;5.350;2023-06-10T21:59:14;9.80;;;4.05;;
63965;SDS011;50151;52.030;5.350;2023-06-10T22:01:41;12.60;;;4.35;;
63965;SDS011;50151;52.030;5.350;2023-06-10T22:04:07;8.98;;;4.32;;
63965;SDS011;50151;52.030;5.350;2023-06-10T22:06:34;11.43;;;4.47;;
63965;SDS011;50151;52.030;5.350;2023-06-10T22:09:02;6.40;;;4.47;;
63965;SDS011;50151;52.030;5.350;2023-06-10T22:11:29;11.13;;;4.32;;
63965;SDS011;50151;52.030;5.350;2023-06-10T22:13:56;10.68;;;4.40;;
63965;SDS011;50151;52.030;5.350;2023-06-10T22:16:22;8.57;;;4.30;;
63965;SDS011;50151;52.030;5.350;2023-06-10T22:18:49;10.02;;;4.32;;
63965;SDS011;50151;52.030;5.350;2023-06-10T22:21:16;11.52;;;4.57;;
63965;SDS011;50151;52.030;5.350;2023-06-10T22:23:43;7.38;;;4.80;;
63965;SDS011;50151;52.030;5.350;2023-06-10T22:26:09;10.10;;;4.53;;
63965;SDS011;50151;52.030;5.350;2023-06-10T22:28:36;8.30;;;4.57;;
63965;SDS011;50151;52.030;5.350;2023-06-10T22:31:03;8.80;;;4.53;;
63965;SDS011;50151;52.030;5.350;2023-06-10T22:33:31;10.75;;;4.93;;
63965;SDS011;50151;52.030;5.350;2023-06-10T22:35:57;10.10;;;4.60;;
63965;SDS011;50151;52.030;5.350;2023-06-10T22:38:24;10.50;;;5.38;;
63965;SDS011;50151;52.030;5.350;2023-06-10T22:40:51;12.90;;;4.95;;
63965;SDS011;50151;52.030;5.350;2023-06-10T22:43:17;7.75;;;4.68;;
63965;SDS011;50151;52.030;5.350;2023-06-10T22:45:44;15.15;;;5.30;;
63965;SDS011;50151;52.030;5.350;2023-06-10T22:48:11;11.50;;;5.28;;
63965;SDS011;50151;52.030;5.350;2023-06-10T22:50:38;11.25;;;4.90;;
63965;SDS011;50151;52.030;5.350;2023-06-10T22:53:04;17.08;;;5.00;;
63965;SDS011;50151;52.030;5.350;2023-06-10T22:55:31;7.30;;;4.70;;
63965;SDS011;50151;52.030;5.350;2023-06-10T22:57:59;5.70;;;4.50;;
63965;SDS011;50151;52.030;5.350;2023-06-10T23:00:25;8.27;;;4.90;;
63965;SDS011;50151;52.030;5.350;2023-06-10T23:02:52;8.02;;;5.22;;
63965;SDS011;50151;52.030;5.350;2023-06-10T23:05:19;7.38;;;4.60;;
63965;SDS011;50151;52.030;5.350;2023-06-10T23:07:46;9.68;;;5.43;;
63965;SDS011;50151;52.030;5.350;2023-06-10T23:10:12;10.32;;;5.25;;
63965;SDS011;50151;52.030;5.350;2023-06-10T23:12:39;10.02;;;5.50;;
63965;SDS011;50151;52.030;5.350;2023-06-10T23:15:06;8.98;;;5.18;;
63965;SDS011;50151;52.030;5.350;2023-06-10T23:17:33;10.20;;;5.28;;
63965;SDS011;50151;52.030;5.350;2023-06-10T23:20:01;11.38;;;4.95;;
63965;SDS011;50151;52.030;5.350;2023-06-10T23:22:28;8.02;;;4.95;;
63965;SDS011;50151;52.030;5.350;2023-06-10T23:24:58;12.23;;;4.97;;
63965;SDS011;50151;52.030;5.350;2023-06-10T23:27:27;7.20;;;5.07;;
63965;SDS011;50151;52.030;5.350;2023-06-10T23:29:54;8.13;;;4.90;;
63965;SDS011;50151;52.030;5.350;2023-06-10T23:32:25;7.47;;;4.93;;
63965;SDS011;50151;52.030;5.350;2023-06-10T23:34:53;10.70;;;5.30;;